createdAt,value
2017-10-07T00:00:48.019Z,0.00
2017-10-07T00:01:48.026Z,0.00
2017-10-07T00:02:48.034Z,0.00
2017-10-07T00:03:48.032Z,0.00
2017-10-07T00:04:48.065Z,0.00
2017-10-07T00:05:48.061Z,0.00
2017-10-07T00:06:48.133Z,0.00
2017-10-07T00:07:48.080Z,0.00
2017-10-07T00:08:48.100Z,0.00
2017-10-07T00:09:48.111Z,0.00
2017-10-07T00:10:48.096Z,0.00
2017-10-07T00:11:48.113Z,0.00
2017-10-07T00:12:48.114Z,0.00
2017-10-07T00:13:48.147Z,0.00
2017-10-07T00:14:48.118Z,0.00
2017-10-07T00:15:48.112Z,0.00
2017-10-07T00:16:48.148Z,0.00
2017-10-07T00:17:48.174Z,0.00
2017-10-07T00:18:48.152Z,0.00
2017-10-07T00:19:48.147Z,0.00
2017-10-07T00:20:48.184Z,0.00
2017-10-07T00:21:48.173Z,0.00
2017-10-07T00:22:48.193Z,0.00
2017-10-07T00:23:48.175Z,0.00
2017-10-07T00:24:48.200Z,0.00
2017-10-07T00:25:48.182Z,0.00
2017-10-07T00:26:48.196Z,0.00
2017-10-07T00:27:48.202Z,0.00
2017-10-07T00:28:48.207Z,0.00
2017-10-07T00:29:48.261Z,0.00
2017-10-07T00:30:48.206Z,0.00
2017-10-07T00:31:48.279Z,0.00
2017-10-07T00:32:48.226Z,0.00
2017-10-07T00:33:48.243Z,0.00
2017-10-07T00:34:48.262Z,0.00
2017-10-07T00:35:48.236Z,0.00
2017-10-07T00:36:48.264Z,0.00
2017-10-07T00:37:48.290Z,0.00
2017-10-07T00:38:48.271Z,0.00
2017-10-07T00:39:48.275Z,0.00
2017-10-07T00:40:48.279Z,0.00
2017-10-07T00:41:48.269Z,0.00
2017-10-07T00:42:48.281Z,0.00
2017-10-07T00:43:48.371Z,0.00
2017-10-07T00:44:48.349Z,0.00
2017-10-07T00:45:48.315Z,0.00
2017-10-07T00:46:48.324Z,0.00
2017-10-07T00:47:48.323Z,0.00
2017-10-07T00:48:48.339Z,0.00
2017-10-07T00:49:48.353Z,0.00
2017-10-07T00:50:48.322Z,0.00
2017-10-07T00:51:48.352Z,0.00
2017-10-07T00:52:48.351Z,0.00
2017-10-07T00:53:48.404Z,0.00
2017-10-07T00:54:48.355Z,0.00
2017-10-07T00:55:48.369Z,0.00
2017-10-07T00:56:48.370Z,0.00
2017-10-07T00:57:48.373Z,0.00
2017-10-07T00:58:48.373Z,0.00
2017-10-07T00:59:48.396Z,0.00
2017-10-07T01:00:48.417Z,0.00
2017-10-07T01:01:48.435Z,0.00
2017-10-07T01:02:48.415Z,0.00
2017-10-07T01:03:48.458Z,0.00
2017-10-07T01:04:48.432Z,0.00
2017-10-07T01:05:48.464Z,0.00
2017-10-07T01:06:48.474Z,0.00
2017-10-07T01:07:48.434Z,0.00
2017-10-07T01:08:48.454Z,0.00
2017-10-07T01:09:48.556Z,0.00
2017-10-07T01:10:48.457Z,0.00
2017-10-07T01:11:48.538Z,0.00
2017-10-07T01:12:48.486Z,0.00
2017-10-07T01:13:48.528Z,0.00
2017-10-07T01:14:48.466Z,0.00
2017-10-07T01:15:48.495Z,0.00
2017-10-07T01:16:48.489Z,0.00
2017-10-07T01:17:48.491Z,0.00
2017-10-07T01:18:48.510Z,0.00
2017-10-07T01:19:48.512Z,0.00
2017-10-07T01:20:48.520Z,0.00
2017-10-07T01:21:48.508Z,0.00
2017-10-07T01:22:48.542Z,0.00
2017-10-07T01:23:48.550Z,0.00
2017-10-07T01:24:48.530Z,0.00
2017-10-07T01:25:48.546Z,0.00
2017-10-07T01:26:48.570Z,0.00
2017-10-07T01:27:48.566Z,0.00
2017-10-07T01:28:48.567Z,0.00
2017-10-07T01:29:48.616Z,0.00
2017-10-07T01:30:48.582Z,0.00
2017-10-07T01:31:48.613Z,0.00
2017-10-07T01:32:48.590Z,0.00
2017-10-07T01:33:48.605Z,0.00
2017-10-07T01:34:48.597Z,0.00
2017-10-07T01:35:48.613Z,0.00
2017-10-07T01:36:48.633Z,0.00
2017-10-07T01:37:48.665Z,0.00
2017-10-07T01:38:48.631Z,0.00
2017-10-07T01:39:48.629Z,0.00
2017-10-07T01:40:48.624Z,0.00
2017-10-07T01:41:48.637Z,0.00
2017-10-07T01:42:48.671Z,0.00
2017-10-07T01:43:48.650Z,0.00
2017-10-07T01:44:48.660Z,0.00
2017-10-07T01:45:48.652Z,0.00
2017-10-07T01:46:48.667Z,0.00
2017-10-07T01:47:48.682Z,0.00
2017-10-07T01:48:48.700Z,0.00
2017-10-07T01:49:48.702Z,0.00
2017-10-07T01:50:48.697Z,0.00
2017-10-07T01:51:48.688Z,0.00
2017-10-07T01:52:48.739Z,0.00
2017-10-07T01:53:48.723Z,0.00
2017-10-07T01:54:48.741Z,0.00
2017-10-07T01:55:48.732Z,0.00
2017-10-07T01:56:48.735Z,0.00
2017-10-07T01:57:48.764Z,0.00
2017-10-07T01:58:48.763Z,0.00
2017-10-07T01:59:48.757Z,0.00
2017-10-07T02:00:48.762Z,0.00
2017-10-07T02:01:48.763Z,0.00
2017-10-07T02:02:48.795Z,0.00
2017-10-07T02:03:48.767Z,0.00
2017-10-07T02:04:48.766Z,0.00
2017-10-07T02:05:48.826Z,0.00
2017-10-07T02:06:48.803Z,0.00
2017-10-07T02:07:48.796Z,0.00
2017-10-07T02:08:48.795Z,0.00
2017-10-07T02:09:48.805Z,0.00
2017-10-07T02:10:48.830Z,0.00
2017-10-07T02:11:48.848Z,0.00
2017-10-07T02:12:48.822Z,0.00
2017-10-07T02:13:48.820Z,0.00
2017-10-07T02:14:48.864Z,0.00
2017-10-07T02:15:48.862Z,0.00
2017-10-07T02:16:48.841Z,0.00
2017-10-07T02:17:48.859Z,0.00
2017-10-07T02:18:48.894Z,0.00
2017-10-07T02:19:48.890Z,0.00
2017-10-07T02:20:48.906Z,0.00
2017-10-07T02:21:48.894Z,0.00
2017-10-07T02:22:48.888Z,0.00
2017-10-07T02:23:48.969Z,0.00
2017-10-07T02:24:48.908Z,0.00
2017-10-07T02:25:48.900Z,0.00
2017-10-07T02:26:48.919Z,0.00
2017-10-07T02:27:48.951Z,0.00
2017-10-07T02:28:48.938Z,0.00
2017-10-07T02:29:48.918Z,0.00
2017-10-07T02:30:48.944Z,0.00
2017-10-07T02:31:48.999Z,0.00
2017-10-07T02:32:48.980Z,0.00
2017-10-07T02:33:48.963Z,0.00
2017-10-07T02:34:48.961Z,0.00
2017-10-07T02:35:48.959Z,0.00
2017-10-07T02:36:48.981Z,0.00
2017-10-07T02:37:48.986Z,0.00
2017-10-07T02:38:48.982Z,0.00
2017-10-07T02:39:48.978Z,0.00
2017-10-07T02:40:48.993Z,0.00
2017-10-07T02:41:48.994Z,0.00
2017-10-07T02:42:49.031Z,0.00
2017-10-07T02:43:49.032Z,0.00
2017-10-07T02:44:49.064Z,0.00
2017-10-07T02:45:49.029Z,0.00
2017-10-07T02:46:49.026Z,0.00
2017-10-07T02:47:49.028Z,0.00
2017-10-07T02:48:49.046Z,0.00
2017-10-07T02:49:49.045Z,0.00
2017-10-07T02:50:49.066Z,0.00
2017-10-07T02:51:49.058Z,0.00
2017-10-07T02:52:49.076Z,0.00
2017-10-07T02:53:49.082Z,0.00
2017-10-07T02:54:49.111Z,0.00
2017-10-07T02:55:49.098Z,0.00
2017-10-07T02:56:49.105Z,0.00
2017-10-07T02:57:49.118Z,0.00
2017-10-07T02:58:49.109Z,0.00
2017-10-07T02:59:49.100Z,0.00
2017-10-07T03:00:49.112Z,0.00
2017-10-07T03:01:49.115Z,0.00
2017-10-07T03:02:49.164Z,0.00
2017-10-07T03:03:49.138Z,0.00
2017-10-07T03:04:49.138Z,0.00
2017-10-07T03:05:49.138Z,0.00
2017-10-07T03:06:49.144Z,0.00
2017-10-07T03:07:49.179Z,0.00
2017-10-07T03:08:49.170Z,0.00
2017-10-07T03:09:49.183Z,0.00
2017-10-07T03:10:49.194Z,0.00
2017-10-07T03:11:49.186Z,0.00
2017-10-07T03:12:49.204Z,0.00
2017-10-07T03:13:49.197Z,0.00
2017-10-07T03:14:49.241Z,0.00
2017-10-07T03:15:49.212Z,0.00
2017-10-07T03:16:49.204Z,0.00
2017-10-07T03:17:49.236Z,0.00
2017-10-07T03:18:49.254Z,0.00
2017-10-07T03:19:49.228Z,0.00
2017-10-07T03:20:49.244Z,0.00
2017-10-07T03:21:49.235Z,0.00
2017-10-07T03:22:49.272Z,0.00
2017-10-07T03:23:49.260Z,0.00
2017-10-07T03:24:49.252Z,0.00
2017-10-07T03:25:49.280Z,0.00
2017-10-07T03:26:49.273Z,0.00
2017-10-07T03:27:49.284Z,0.00
2017-10-07T03:28:49.291Z,0.00
2017-10-07T03:29:49.304Z,0.00
2017-10-07T03:30:49.305Z,0.00
2017-10-07T03:31:49.359Z,0.00
2017-10-07T03:32:49.308Z,0.00
2017-10-07T03:33:49.354Z,0.00
2017-10-07T03:34:49.308Z,0.00
2017-10-07T03:35:49.317Z,0.00
2017-10-07T03:36:49.329Z,0.00
2017-10-07T03:37:49.355Z,0.00
2017-10-07T03:38:49.346Z,0.00
2017-10-07T03:39:49.381Z,0.00
2017-10-07T03:40:49.365Z,0.00
2017-10-07T03:41:49.356Z,0.00
2017-10-07T03:42:49.358Z,0.00
2017-10-07T03:43:49.364Z,0.00
2017-10-07T03:44:49.394Z,0.00
2017-10-07T03:45:49.438Z,0.00
2017-10-07T03:46:49.404Z,0.00
2017-10-07T03:47:49.384Z,0.00
2017-10-07T03:48:49.399Z,0.00
2017-10-07T03:49:49.424Z,0.00
2017-10-07T03:50:49.416Z,0.00
2017-10-07T03:51:49.412Z,0.00
2017-10-07T03:52:49.416Z,0.00
2017-10-07T03:53:49.440Z,0.00
2017-10-07T03:54:49.437Z,0.00
2017-10-07T03:55:49.449Z,0.00
2017-10-07T03:56:49.460Z,0.00
2017-10-07T03:57:49.459Z,0.00
2017-10-07T03:58:49.477Z,0.00
2017-10-07T03:59:49.474Z,0.00
2017-10-07T04:00:49.476Z,0.00
2017-10-07T04:01:49.491Z,0.00
2017-10-07T04:02:49.516Z,0.00
2017-10-07T04:03:49.507Z,0.00
2017-10-07T04:04:49.513Z,0.00
2017-10-07T04:05:49.511Z,0.00
2017-10-07T04:06:49.539Z,0.00
2017-10-07T04:07:49.536Z,0.00
2017-10-07T04:08:49.526Z,0.00
2017-10-07T04:09:49.563Z,0.00
2017-10-07T04:10:49.585Z,0.00
2017-10-07T04:11:49.551Z,0.00
2017-10-07T04:12:49.604Z,0.00
2017-10-07T04:13:49.589Z,0.00
2017-10-07T04:14:49.611Z,0.00
2017-10-07T04:15:49.585Z,0.00
2017-10-07T04:16:49.603Z,0.00
2017-10-07T04:17:49.602Z,0.00
2017-10-07T04:18:49.632Z,0.00
2017-10-07T04:19:49.608Z,0.00
2017-10-07T04:20:49.644Z,0.00
2017-10-07T04:21:49.633Z,0.00
2017-10-07T04:22:49.618Z,0.00
2017-10-07T04:23:49.635Z,0.00
2017-10-07T04:24:49.625Z,0.00
2017-10-07T04:25:49.661Z,0.00
2017-10-07T04:26:49.679Z,0.00
2017-10-07T04:27:49.646Z,0.00
2017-10-07T04:28:49.678Z,0.00
2017-10-07T04:29:49.681Z,0.00
2017-10-07T04:30:49.687Z,0.00
2017-10-07T04:31:49.721Z,0.00
2017-10-07T04:32:49.679Z,0.00
2017-10-07T04:33:49.683Z,0.00
2017-10-07T04:34:49.707Z,0.00
2017-10-07T04:35:49.691Z,0.00
2017-10-07T04:36:49.717Z,0.00
2017-10-07T04:37:49.750Z,0.00
2017-10-07T04:38:49.747Z,0.00
2017-10-07T04:39:49.735Z,0.00
2017-10-07T04:40:49.768Z,0.00
2017-10-07T04:41:49.743Z,0.00
2017-10-07T04:42:49.759Z,0.00
2017-10-07T04:43:49.795Z,0.00
2017-10-07T04:44:49.763Z,0.00
2017-10-07T04:45:49.794Z,0.00
2017-10-07T04:46:49.802Z,0.00
2017-10-07T04:47:49.777Z,0.00
2017-10-07T04:48:49.796Z,0.00
2017-10-07T04:49:49.811Z,0.00
2017-10-07T04:50:49.836Z,0.00
2017-10-07T04:51:49.838Z,0.00
2017-10-07T04:52:49.815Z,0.00
2017-10-07T04:53:49.846Z,0.00
2017-10-07T04:54:49.828Z,0.00
2017-10-07T04:55:49.857Z,0.00
2017-10-07T04:56:49.851Z,0.00
2017-10-07T04:57:49.856Z,0.00
2017-10-07T04:58:49.874Z,0.00
2017-10-07T04:59:49.895Z,0.00
2017-10-07T05:00:49.901Z,0.00
2017-10-07T05:01:49.877Z,0.00
2017-10-07T05:02:49.923Z,0.00
2017-10-07T05:03:49.905Z,0.00
2017-10-07T05:04:49.897Z,0.00
2017-10-07T05:05:49.904Z,0.00
2017-10-07T05:06:49.944Z,0.00
2017-10-07T05:07:49.945Z,0.00
2017-10-07T05:08:49.960Z,4.00
2017-10-07T05:09:49.976Z,4.00
2017-10-07T05:10:49.933Z,0.00
2017-10-07T05:11:49.953Z,0.00
2017-10-07T05:12:49.968Z,4.00
2017-10-07T05:13:49.990Z,0.00
2017-10-07T05:14:49.968Z,4.00
2017-10-07T05:15:49.975Z,4.00
2017-10-07T05:16:49.997Z,4.00
2017-10-07T05:17:49.979Z,4.00
2017-10-07T05:18:50.006Z,8.00
2017-10-07T05:19:49.999Z,8.00
2017-10-07T05:20:50.006Z,8.00
2017-10-07T05:21:50.038Z,12.00
2017-10-07T05:22:50.015Z,16.00
2017-10-07T05:23:50.033Z,20.00
2017-10-07T05:24:50.020Z,20.00
2017-10-07T05:25:50.039Z,28.00
2017-10-07T05:26:50.052Z,28.00
2017-10-07T05:27:50.059Z,32.00
2017-10-07T05:28:50.082Z,36.00
2017-10-07T05:29:50.085Z,44.00
2017-10-07T05:30:50.085Z,52.00
2017-10-07T05:31:50.090Z,60.00
2017-10-07T05:32:50.126Z,64.00
2017-10-07T05:33:50.082Z,72.00
2017-10-07T05:34:50.098Z,84.00
2017-10-07T05:35:50.146Z,100.00
2017-10-07T05:36:50.115Z,116.00
2017-10-07T05:37:50.120Z,128.00
2017-10-07T05:38:50.117Z,140.00
2017-10-07T05:39:50.150Z,156.00
2017-10-07T05:40:50.145Z,184.00
2017-10-07T05:41:50.173Z,208.00
2017-10-07T05:42:50.181Z,232.00
2017-10-07T05:43:50.170Z,256.00
2017-10-07T05:44:50.168Z,268.00
2017-10-07T05:45:50.177Z,284.00
2017-10-07T05:46:50.183Z,304.00
2017-10-07T05:47:50.245Z,332.00
2017-10-07T05:48:50.217Z,372.00
2017-10-07T05:49:50.218Z,412.00
2017-10-07T05:50:50.212Z,448.00
2017-10-07T05:51:50.213Z,472.00
2017-10-07T05:52:50.250Z,500.00
2017-10-07T05:53:50.234Z,520.00
2017-10-07T05:54:50.269Z,544.00
2017-10-07T05:55:50.245Z,568.00
2017-10-07T05:56:50.272Z,600.00
2017-10-07T05:57:50.264Z,628.00
2017-10-07T05:58:50.280Z,656.00
2017-10-07T05:59:50.273Z,692.00
2017-10-07T06:00:50.276Z,720.00
2017-10-07T06:01:50.268Z,740.00
2017-10-07T06:02:50.293Z,764.00
2017-10-07T06:03:50.309Z,788.00
2017-10-07T06:04:50.331Z,812.00
2017-10-07T06:05:50.305Z,840.00
2017-10-07T06:06:50.323Z,864.00
2017-10-07T06:07:50.360Z,884.00
2017-10-07T06:08:50.341Z,908.00
2017-10-07T06:09:50.344Z,928.00
2017-10-07T06:10:50.342Z,956.00
2017-10-07T06:11:50.382Z,984.00
2017-10-07T06:12:50.358Z,1012.00
2017-10-07T06:13:50.374Z,1048.00
2017-10-07T06:14:50.390Z,1096.00
2017-10-07T06:15:50.368Z,1148.00
2017-10-07T06:16:50.369Z,1220.00
2017-10-07T06:17:50.424Z,1296.00
2017-10-07T06:18:50.380Z,1368.00
2017-10-07T06:19:50.401Z,1432.00
2017-10-07T06:20:50.390Z,1488.00
2017-10-07T06:21:50.427Z,1580.00
2017-10-07T06:22:50.413Z,1820.00
2017-10-07T06:23:50.461Z,2060.00
2017-10-07T06:24:50.435Z,2116.00
2017-10-07T06:25:50.439Z,2720.00
2017-10-07T06:26:50.452Z,2668.00
2017-10-07T06:27:50.498Z,2020.00
2017-10-07T06:28:50.466Z,1856.00
2017-10-07T06:29:50.455Z,1904.00
2017-10-07T06:30:50.470Z,2020.00
2017-10-07T06:31:50.485Z,2044.00
2017-10-07T06:32:50.498Z,1900.00
2017-10-07T06:33:50.503Z,1908.00
2017-10-07T06:34:50.509Z,1988.00
2017-10-07T06:35:50.491Z,1912.00
2017-10-07T06:36:50.507Z,1920.00
2017-10-07T06:37:50.502Z,1888.00
2017-10-07T06:38:50.524Z,1820.00
2017-10-07T06:39:50.503Z,1808.00
2017-10-07T06:40:50.523Z,1832.00
2017-10-07T06:41:50.569Z,1860.00
2017-10-07T06:42:50.547Z,1888.00
2017-10-07T06:43:50.569Z,1924.00
2017-10-07T06:44:50.558Z,1948.00
2017-10-07T06:45:50.550Z,1936.00
2017-10-07T06:46:50.583Z,2044.00
2017-10-07T06:47:50.615Z,2184.00
2017-10-07T06:48:50.588Z,2344.00
2017-10-07T06:49:50.625Z,2476.00
2017-10-07T06:50:50.593Z,2656.00
2017-10-07T06:51:50.587Z,2824.00
2017-10-07T06:52:50.602Z,2716.00
2017-10-07T06:53:50.660Z,2564.00
2017-10-07T06:54:50.653Z,2748.00
2017-10-07T06:55:50.636Z,3024.00
2017-10-07T06:56:50.632Z,3936.00
2017-10-07T06:57:50.648Z,4832.00
2017-10-07T06:58:50.639Z,4484.00
2017-10-07T06:59:50.690Z,3884.00
2017-10-07T07:00:50.700Z,3620.00
2017-10-07T07:01:50.690Z,3944.00
2017-10-07T07:02:50.675Z,3772.00
2017-10-07T07:03:50.674Z,3168.00
2017-10-07T07:04:50.679Z,3048.00
2017-10-07T07:05:50.684Z,3108.00
2017-10-07T07:06:50.726Z,2684.00
2017-10-07T07:07:50.733Z,2772.00
2017-10-07T07:08:50.731Z,2788.00
2017-10-07T07:09:50.724Z,2928.00
2017-10-07T07:10:50.759Z,3500.00
2017-10-07T07:11:50.745Z,2312.00
2017-10-07T07:12:50.758Z,2472.00
2017-10-07T07:13:50.760Z,2760.00
2017-10-07T07:14:50.751Z,2712.00
2017-10-07T07:15:50.764Z,2736.00
2017-10-07T07:16:50.765Z,2744.00
2017-10-07T07:17:50.791Z,2288.00
2017-10-07T07:18:50.792Z,2884.00
2017-10-07T07:19:50.828Z,2964.00
2017-10-07T07:20:50.783Z,3180.00
2017-10-07T07:21:50.800Z,3324.00
2017-10-07T07:22:50.859Z,3508.00
2017-10-07T07:23:50.817Z,3732.00
2017-10-07T07:24:50.811Z,4244.00
2017-10-07T07:25:50.826Z,5140.00
2017-10-07T07:26:50.850Z,7436.00
2017-10-07T07:27:50.851Z,8888.00
2017-10-07T07:28:50.875Z,8924.00
2017-10-07T07:29:50.887Z,7420.00
2017-10-07T07:30:50.873Z,6296.00
2017-10-07T07:31:50.885Z,6552.00
2017-10-07T07:32:50.937Z,7936.00
2017-10-07T07:33:50.935Z,9212.00
2017-10-07T07:34:50.917Z,11564.00
2017-10-07T07:35:50.910Z,13332.00
2017-10-07T07:36:50.929Z,11564.00
2017-10-07T07:37:50.928Z,12720.00
2017-10-07T07:38:50.948Z,12860.00
2017-10-07T07:39:50.940Z,12012.00
2017-10-07T07:40:50.953Z,11968.00
2017-10-07T07:41:50.981Z,12124.00
2017-10-07T07:42:50.966Z,11724.00
2017-10-07T07:43:50.965Z,11164.00
2017-10-07T07:44:51.028Z,11232.00
2017-10-07T07:45:50.997Z,10152.00
2017-10-07T07:46:50.996Z,8716.00
2017-10-07T07:47:51.009Z,11232.00
2017-10-07T07:48:51.063Z,18208.00
2017-10-07T07:49:51.045Z,17632.00
2017-10-07T07:50:51.024Z,23200.00
2017-10-07T07:51:51.052Z,15456.00
2017-10-07T07:52:51.071Z,6152.00
2017-10-07T07:53:51.077Z,4748.00
2017-10-07T07:54:51.085Z,4768.00
2017-10-07T07:55:51.090Z,5240.00
2017-10-07T07:56:51.086Z,5868.00
2017-10-07T07:57:51.093Z,7980.00
2017-10-07T07:58:51.142Z,9852.00
2017-10-07T07:59:51.103Z,11664.00
2017-10-07T08:00:51.111Z,14336.00
2017-10-07T08:01:51.167Z,13392.00
2017-10-07T08:02:51.163Z,11768.00
2017-10-07T08:03:51.159Z,9948.00
2017-10-07T08:04:51.160Z,9672.00
2017-10-07T08:05:51.174Z,8876.00
2017-10-07T08:06:51.187Z,13736.00
2017-10-07T08:07:51.187Z,15360.00
2017-10-07T08:08:51.184Z,11568.00
2017-10-07T08:09:51.219Z,8752.00
2017-10-07T08:10:51.198Z,10716.00
2017-10-07T08:11:51.200Z,5404.00
2017-10-07T08:12:51.209Z,15136.00
2017-10-07T08:13:51.226Z,14528.00
2017-10-07T08:14:51.234Z,11248.00
2017-10-07T08:15:51.242Z,12356.00
2017-10-07T08:16:51.252Z,9080.00
2017-10-07T08:17:51.289Z,7984.00
2017-10-07T08:18:51.270Z,8464.00
2017-10-07T08:19:51.285Z,9816.00
2017-10-07T08:20:51.281Z,13764.00
2017-10-07T08:21:51.293Z,14528.00
2017-10-07T08:22:51.301Z,15968.00
2017-10-07T08:23:51.314Z,14912.00
2017-10-07T08:24:51.316Z,15744.00
2017-10-07T08:25:51.320Z,15616.00
2017-10-07T08:26:51.372Z,15936.00
2017-10-07T08:27:51.376Z,15168.00
2017-10-07T08:28:51.357Z,12588.00
2017-10-07T08:29:51.368Z,11360.00
2017-10-07T08:30:51.381Z,11672.00
2017-10-07T08:31:51.385Z,8540.00
2017-10-07T08:32:51.442Z,7196.00
2017-10-07T08:33:51.402Z,6964.00
2017-10-07T08:34:51.445Z,10140.00
2017-10-07T08:35:51.442Z,10516.00
2017-10-07T08:36:51.432Z,14560.00
2017-10-07T08:37:51.433Z,14944.00
2017-10-07T08:38:51.470Z,12796.00
2017-10-07T08:39:51.456Z,14336.00
2017-10-07T08:40:51.453Z,6960.00
2017-10-07T08:41:51.478Z,8884.00
2017-10-07T08:42:51.458Z,13012.00
2017-10-07T08:43:51.488Z,10364.00
2017-10-07T08:44:51.513Z,13532.00
2017-10-07T08:45:51.851Z,15584.00
2017-10-07T08:46:51.494Z,16512.00
2017-10-07T08:47:51.509Z,15360.00
2017-10-07T08:48:51.542Z,14976.00
2017-10-07T08:49:51.530Z,14336.00
2017-10-07T08:50:51.529Z,15264.00
2017-10-07T08:51:51.540Z,15616.00
2017-10-07T08:52:51.557Z,16000.00
2017-10-07T08:53:51.553Z,16832.00
2017-10-07T08:54:51.575Z,17536.00
2017-10-07T08:55:51.571Z,16960.00
2017-10-07T08:56:51.590Z,16736.00
2017-10-07T08:57:51.620Z,17344.00
2017-10-07T08:58:51.626Z,17760.00
2017-10-07T08:59:51.615Z,20288.00
2017-10-07T09:00:51.613Z,24096.00
2017-10-07T09:01:51.620Z,23776.00
2017-10-07T09:02:51.631Z,20256.00
2017-10-07T09:03:51.660Z,14300.00
2017-10-07T09:04:51.644Z,8500.00
2017-10-07T09:05:51.673Z,9184.00
2017-10-07T09:06:51.657Z,20576.00
2017-10-07T09:07:51.694Z,14016.00
2017-10-07T09:08:51.686Z,20192.00
2017-10-07T09:09:51.734Z,18688.00
2017-10-07T09:10:51.687Z,15072.00
2017-10-07T09:11:51.727Z,14624.00
2017-10-07T09:12:51.738Z,6736.00
2017-10-07T09:13:51.721Z,6424.00
2017-10-07T09:14:51.734Z,6624.00
2017-10-07T09:15:51.735Z,9060.00
2017-10-07T09:16:51.756Z,6304.00
2017-10-07T09:17:51.767Z,6020.00
2017-10-07T09:18:51.777Z,6996.00
2017-10-07T09:19:51.778Z,7272.00
2017-10-07T09:20:51.810Z,7724.00
2017-10-07T09:21:51.797Z,6008.00
2017-10-07T09:22:51.809Z,6328.00
2017-10-07T09:23:51.831Z,6628.00
2017-10-07T09:24:51.811Z,8284.00
2017-10-07T09:25:51.835Z,6468.00
2017-10-07T09:26:51.844Z,6580.00
2017-10-07T09:27:51.845Z,7120.00
2017-10-07T09:28:51.894Z,6472.00
2017-10-07T09:29:51.907Z,5632.00
2017-10-07T09:30:51.861Z,5312.00
2017-10-07T09:31:51.872Z,5556.00
2017-10-07T09:32:51.886Z,5816.00
2017-10-07T09:33:51.888Z,6060.00
2017-10-07T09:34:51.889Z,5876.00
2017-10-07T09:35:51.909Z,5908.00
2017-10-07T09:36:51.913Z,5904.00
2017-10-07T09:37:51.937Z,5964.00
2017-10-07T09:38:51.936Z,6104.00
2017-10-07T09:39:51.959Z,8316.00
2017-10-07T09:40:51.980Z,7512.00
2017-10-07T09:41:51.958Z,7476.00
2017-10-07T09:42:51.976Z,6884.00
2017-10-07T09:43:51.978Z,7564.00
2017-10-07T09:44:51.995Z,7852.00
2017-10-07T09:45:51.994Z,7296.00
2017-10-07T09:46:52.013Z,7868.00
2017-10-07T09:47:52.020Z,8160.00
2017-10-07T09:48:52.013Z,7956.00
2017-10-07T09:49:52.009Z,8136.00
2017-10-07T09:50:52.018Z,7896.00
2017-10-07T09:51:52.085Z,7744.00
2017-10-07T09:52:52.036Z,7884.00
2017-10-07T09:53:52.055Z,7864.00
2017-10-07T09:54:52.055Z,7604.00
2017-10-07T09:55:52.069Z,7168.00
2017-10-07T09:56:52.088Z,6620.00
2017-10-07T09:57:52.118Z,6816.00
2017-10-07T09:58:52.097Z,6748.00
2017-10-07T09:59:52.111Z,6604.00
2017-10-07T10:00:52.168Z,6340.00
2017-10-07T10:01:52.165Z,6364.00
2017-10-07T10:02:52.129Z,6516.00
2017-10-07T10:03:52.147Z,6824.00
2017-10-07T10:04:52.162Z,6660.00
2017-10-07T10:05:52.148Z,6720.00
2017-10-07T10:06:52.158Z,7168.00
2017-10-07T10:07:52.193Z,7216.00
2017-10-07T10:08:52.200Z,6436.00
2017-10-07T10:09:52.192Z,6108.00
2017-10-07T10:10:52.194Z,6432.00
2017-10-07T10:11:52.214Z,6836.00
2017-10-07T10:12:52.208Z,7584.00
2017-10-07T10:13:52.240Z,7416.00
2017-10-07T10:14:52.276Z,7012.00
2017-10-07T10:15:52.250Z,7536.00
2017-10-07T10:16:52.240Z,7600.00
2017-10-07T10:17:52.257Z,7660.00
2017-10-07T10:18:52.256Z,8468.00
2017-10-07T10:19:52.278Z,8000.00
2017-10-07T10:20:52.272Z,8016.00
2017-10-07T10:21:52.287Z,8476.00
2017-10-07T10:22:52.288Z,8700.00
2017-10-07T10:23:52.296Z,8692.00
2017-10-07T10:24:52.303Z,9068.00
2017-10-07T10:25:52.312Z,9152.00
2017-10-07T10:26:52.319Z,9296.00
2017-10-07T10:27:52.335Z,9284.00
2017-10-07T10:28:52.363Z,9268.00
2017-10-07T10:29:52.363Z,9324.00
2017-10-07T10:30:52.363Z,6596.00
2017-10-07T10:31:52.353Z,7984.00
2017-10-07T10:32:52.401Z,7084.00
2017-10-07T10:33:52.386Z,6312.00
2017-10-07T10:34:52.391Z,6804.00
2017-10-07T10:35:52.412Z,8252.00
2017-10-07T10:36:52.430Z,7176.00
2017-10-07T10:37:52.440Z,7300.00
2017-10-07T10:38:52.433Z,7712.00
2017-10-07T10:39:52.440Z,8072.00
2017-10-07T10:40:52.451Z,8480.00
2017-10-07T10:41:52.464Z,11612.00
2017-10-07T10:42:52.454Z,10312.00
2017-10-07T10:43:52.458Z,13416.00
2017-10-07T10:44:52.471Z,14304.00
2017-10-07T10:45:52.506Z,13156.00
2017-10-07T10:46:52.505Z,9456.00
2017-10-07T10:47:52.505Z,9700.00
2017-10-07T10:48:52.510Z,10676.00
2017-10-07T10:49:52.514Z,9620.00
2017-10-07T10:50:52.554Z,9968.00
2017-10-07T10:51:52.554Z,10232.00
2017-10-07T10:52:52.549Z,14560.00
2017-10-07T10:53:52.564Z,10340.00
2017-10-07T10:54:52.558Z,15520.00
2017-10-07T10:55:52.587Z,14176.00
2017-10-07T10:56:52.588Z,12216.00
2017-10-07T10:57:52.622Z,11972.00
2017-10-07T10:58:52.594Z,11836.00
2017-10-07T10:59:52.610Z,12676.00
2017-10-07T11:00:52.611Z,13312.00
2017-10-07T11:01:52.640Z,10048.00
2017-10-07T11:02:52.628Z,8532.00
2017-10-07T11:03:52.651Z,8256.00
2017-10-07T11:04:52.654Z,8072.00
2017-10-07T11:05:52.652Z,8620.00
2017-10-07T11:06:52.676Z,7864.00
2017-10-07T11:07:52.679Z,7172.00
2017-10-07T11:08:52.671Z,6740.00
2017-10-07T11:09:52.684Z,6468.00
2017-10-07T11:10:52.703Z,6316.00
2017-10-07T11:11:52.691Z,6248.00
2017-10-07T11:12:52.716Z,6232.00
2017-10-07T11:13:52.721Z,6192.00
2017-10-07T11:14:52.754Z,6072.00
2017-10-07T11:15:52.737Z,6072.00
2017-10-07T11:16:52.742Z,5984.00
2017-10-07T11:17:52.742Z,5848.00
2017-10-07T11:18:52.783Z,5748.00
2017-10-07T11:19:52.782Z,5596.00
2017-10-07T11:20:52.778Z,5512.00
2017-10-07T11:21:52.813Z,5508.00
2017-10-07T11:22:52.797Z,5492.00
2017-10-07T11:23:52.818Z,5468.00
2017-10-07T11:24:52.824Z,5396.00
2017-10-07T11:25:52.815Z,5424.00
2017-10-07T11:26:52.840Z,5456.00
2017-10-07T11:27:52.846Z,5416.00
2017-10-07T11:28:52.852Z,5216.00
2017-10-07T11:29:52.845Z,5024.00
2017-10-07T11:30:52.857Z,5216.00
2017-10-07T11:31:52.871Z,5560.00
2017-10-07T11:32:52.866Z,5852.00
2017-10-07T11:33:52.924Z,5888.00
2017-10-07T11:34:52.897Z,5784.00
2017-10-07T11:35:52.895Z,5960.00
2017-10-07T11:36:52.919Z,6460.00
2017-10-07T11:37:52.949Z,7592.00
2017-10-07T11:38:52.917Z,7448.00
2017-10-07T11:39:52.942Z,6832.00
2017-10-07T11:40:52.938Z,7116.00
2017-10-07T11:41:52.993Z,7748.00
2017-10-07T11:42:52.958Z,8500.00
2017-10-07T11:43:52.966Z,9420.00
2017-10-07T11:44:52.988Z,9560.00
2017-10-07T11:45:52.985Z,8928.00
2017-10-07T11:46:52.995Z,8428.00
2017-10-07T11:47:53.025Z,8440.00
2017-10-07T11:48:53.007Z,8468.00
2017-10-07T11:49:53.012Z,8164.00
2017-10-07T11:50:53.049Z,8076.00
2017-10-07T11:51:53.037Z,7556.00
2017-10-07T11:52:53.055Z,7620.00
2017-10-07T11:53:53.093Z,7104.00
2017-10-07T11:54:53.110Z,7032.00
2017-10-07T11:55:53.081Z,7028.00
2017-10-07T11:56:53.094Z,7420.00
2017-10-07T11:57:53.110Z,7520.00
2017-10-07T11:58:53.097Z,7504.00
2017-10-07T11:59:53.110Z,7556.00
2017-10-07T12:00:53.107Z,7488.00
2017-10-07T12:01:53.126Z,7344.00
2017-10-07T12:02:53.144Z,7660.00
2017-10-07T12:03:53.132Z,7660.00
2017-10-07T12:04:53.153Z,7588.00
2017-10-07T12:05:53.195Z,7484.00
2017-10-07T12:06:53.178Z,7824.00
2017-10-07T12:07:53.188Z,7816.00
2017-10-07T12:08:53.207Z,7444.00
2017-10-07T12:09:53.200Z,7568.00
2017-10-07T12:10:53.224Z,7720.00
2017-10-07T12:11:53.217Z,7680.00
2017-10-07T12:12:53.223Z,7552.00
2017-10-07T12:13:53.229Z,7528.00
2017-10-07T12:14:53.258Z,7568.00
2017-10-07T12:15:53.338Z,7608.00
2017-10-07T12:16:53.265Z,7380.00
2017-10-07T12:17:53.303Z,7152.00
2017-10-07T12:18:53.430Z,6964.00
2017-10-07T12:19:53.285Z,6900.00
2017-10-07T12:20:53.325Z,6920.00
2017-10-07T12:21:53.292Z,7204.00
2017-10-07T12:22:53.339Z,7208.00
2017-10-07T12:23:53.336Z,7368.00
2017-10-07T12:24:53.348Z,7508.00
2017-10-07T12:25:53.375Z,7664.00
2017-10-07T12:26:53.374Z,7984.00
2017-10-07T12:27:53.363Z,8172.00
2017-10-07T12:28:53.358Z,8380.00
2017-10-07T12:29:53.394Z,8396.00
2017-10-07T12:30:53.406Z,8056.00
2017-10-07T12:31:53.381Z,7684.00
2017-10-07T12:32:53.409Z,7464.00
2017-10-07T12:33:53.446Z,7008.00
2017-10-07T12:34:53.413Z,6696.00